sensor_id;sensor_type;location;lat;lon;timestamp;pressure;altitude;pressure_sealevel;temperature;humidity
75868;BME280;64515;51.446;7.578;2022-12-07T09:45:02;100257.31;;;16.61;45.47
75868;BME280;64515;51.446;7.578;2022-12-07T09:47:29;100258.56;;;13.25;53.29
75868;BME280;64515;51.446;7.578;2022-12-07T09:49:55;100265.81;;;10.90;58.82
75868;BME280;64515;51.446;7.578;2022-12-07T09:52:25;100271.69;;;9.35;64.72
75868;BME280;64515;51.446;7.578;2022-12-07T09:54:51;100260.44;;;8.37;66.42
75868;BME280;64515;51.446;7.578;2022-12-07T09:57:27;100261.91;;;7.57;68.77
75868;BME280;64515;51.446;7.578;2022-12-07T09:59:53;100262.69;;;7.04;72.80
75868;BME280;64515;51.446;7.578;2022-12-07T10:04:59;100263.13;;;6.73;74.84
75868;BME280;64515;51.446;7.578;2022-12-07T10:07:24;100264.69;;;6.90;73.92
75868;BME280;64515;51.446;7.578;2022-12-07T10:09:50;100263.56;;;7.05;74.06
75868;BME280;64515;51.446;7.578;2022-12-07T10:12:15;100261.16;;;6.88;75.35
75868;BME280;64515;51.446;7.578;2022-12-07T10:14:52;100265.00;;;6.65;75.27
75868;BME280;64515;51.446;7.578;2022-12-07T10:22:52;100255.72;;;6.27;76.61
75868;BME280;64515;51.446;7.578;2022-12-07T10:25:19;100253.00;;;6.30;76.67
75868;BME280;64515;51.446;7.578;2022-12-07T10:27:56;100254.59;;;6.46;75.65
75868;BME280;64515;51.446;7.578;2022-12-07T10:30:22;100254.50;;;6.56;75.32
75868;BME280;64515;51.446;7.578;2022-12-07T10:32:48;100253.63;;;6.53;75.06
75868;BME280;64515;51.446;7.578;2022-12-07T10:35:27;100252.50;;;6.73;76.02
75868;BME280;64515;51.446;7.578;2022-12-07T10:37:53;100252.19;;;6.95;75.61
75868;BME280;64515;51.446;7.578;2022-12-07T10:40:29;100250.69;;;6.75;75.89
75868;BME280;64515;51.446;7.578;2022-12-07T10:48:21;100232.63;;;6.33;75.75
75868;BME280;64515;51.446;7.578;2022-12-07T10:51:10;100232.75;;;6.22;76.78
75868;BME280;64515;51.446;7.578;2022-12-07T10:53:48;100227.84;;;6.62;75.89
75868;BME280;64515;51.446;7.578;2022-12-07T10:58:55;100223.56;;;7.67;73.17
75868;BME280;64515;51.446;7.578;2022-12-07T11:01:25;100229.88;;;7.63;72.96
75868;BME280;64515;51.446;7.578;2022-12-07T11:06:50;100220.19;;;7.01;75.98
75868;BME280;64515;51.446;7.578;2022-12-07T11:11:51;100213.88;;;7.10;73.23
75868;BME280;64515;51.446;7.578;2022-12-07T11:17:00;100213.41;;;6.81;74.62
75868;BME280;64515;51.446;7.578;2022-12-07T11:22:13;100203.03;;;6.63;74.55
75868;BME280;64515;51.446;7.578;2022-12-07T11:29:53;100199.69;;;6.48;76.99
75868;BME280;64515;51.446;7.578;2022-12-07T11:37:44;100190.44;;;6.77;76.39
75868;BME280;64515;51.446;7.578;2022-12-07T11:40:20;100192.97;;;6.85;76.67
75868;BME280;64515;51.446;7.578;2022-12-07T11:42:55;100184.53;;;6.57;76.91
75868;BME280;64515;51.446;7.578;2022-12-07T11:45:28;100185.97;;;6.79;75.34
75868;BME280;64515;51.446;7.578;2022-12-07T11:47:54;100190.38;;;6.80;76.50
75868;BME280;64515;51.446;7.578;2022-12-07T11:53:05;100183.97;;;6.95;74.78
75868;BME280;64515;51.446;7.578;2022-12-07T11:55:43;100183.16;;;6.92;75.35
75868;BME280;64515;51.446;7.578;2022-12-07T11:58:33;100187.78;;;6.76;74.71
75868;BME280;64515;51.446;7.578;2022-12-07T12:01:01;100188.00;;;6.62;76.55
75868;BME280;64515;51.446;7.578;2022-12-07T12:03:30;100178.19;;;6.67;75.00
75868;BME280;64515;51.446;7.578;2022-12-07T12:05:58;100176.59;;;6.53;76.93
75868;BME280;64515;51.446;7.578;2022-12-07T12:08:27;100175.84;;;6.44;77.01
75868;BME280;64515;51.446;7.578;2022-12-07T12:18:26;100170.66;;;6.34;77.63
75868;BME280;64515;51.446;7.578;2022-12-07T12:21:12;100170.44;;;6.50;76.41
75868;BME280;64515;51.446;7.578;2022-12-07T12:26:03;100184.91;;;6.27;76.75
75868;BME280;64515;51.446;7.578;2022-12-07T12:32:04;100162.59;;;6.42;77.06
75868;BME280;64515;51.446;7.578;2022-12-07T12:34:00;100168.00;;;6.34;77.21
75868;BME280;64515;51.446;7.578;2022-12-07T12:44:00;100148.75;;;6.81;76.44
75868;BME280;64515;51.446;7.578;2022-12-07T12:48:54;100159.25;;;6.89;77.18
75868;BME280;64515;51.446;7.578;2022-12-07T12:54:03;100146.00;;;6.87;75.44
75868;BME280;64515;51.446;7.578;2022-12-07T12:59:36;100143.22;;;6.95;75.04
75868;BME280;64515;51.446;7.578;2022-12-07T13:02:20;100143.03;;;7.06;74.38
75868;BME280;64515;51.446;7.578;2022-12-07T13:04:51;100139.59;;;7.00;75.93
75868;BME280;64515;51.446;7.578;2022-12-07T13:08:00;100133.66;;;6.84;74.70
75868;BME280;64515;51.446;7.578;2022-12-07T13:10:08;100136.41;;;6.77;76.29
75868;BME280;64515;51.446;7.578;2022-12-07T13:12:54;100136.47;;;6.74;76.73
75868;BME280;64515;51.446;7.578;2022-12-07T13:18:02;100137.44;;;6.68;77.13
75868;BME280;64515;51.446;7.578;2022-12-07T13:20:44;100128.53;;;6.71;74.20
75868;BME280;64515;51.446;7.578;2022-12-07T13:23:10;100131.44;;;6.53;74.82
75868;BME280;64515;51.446;7.578;2022-12-07T13:25:38;100135.84;;;6.55;76.83
75868;BME280;64515;51.446;7.578;2022-12-07T13:28:16;100127.22;;;6.40;75.59
75868;BME280;64515;51.446;7.578;2022-12-07T13:30:45;100124.47;;;6.46;76.22
75868;BME280;64515;51.446;7.578;2022-12-07T13:33:11;100124.56;;;6.40;76.06
75868;BME280;64515;51.446;7.578;2022-12-07T13:35:37;100128.03;;;6.44;76.70
75868;BME280;64515;51.446;7.578;2022-12-07T13:38:04;100115.63;;;6.46;75.77
75868;BME280;64515;51.446;7.578;2022-12-07T13:40:30;100112.19;;;6.37;76.69
75868;BME280;64515;51.446;7.578;2022-12-07T13:42:59;100107.03;;;6.27;76.46
75868;BME280;64515;51.446;7.578;2022-12-07T13:45:28;100109.91;;;6.08;78.31
75868;BME280;64515;51.446;7.578;2022-12-07T13:48:29;100097.44;;;6.16;77.49
75868;BME280;64515;51.446;7.578;2022-12-07T13:50:55;100099.19;;;6.17;78.06
75868;BME280;64515;51.446;7.578;2022-12-07T13:53:21;100102.72;;;6.16;78.78
75868;BME280;64515;51.446;7.578;2022-12-07T13:55:47;100098.41;;;6.09;78.84
75868;BME280;64515;51.446;7.578;2022-12-07T13:58:12;100094.00;;;6.08;78.24
75868;BME280;64515;51.446;7.578;2022-12-07T14:00:39;100093.09;;;6.09;76.65
75868;BME280;64515;51.446;7.578;2022-12-07T14:03:22;100095.91;;;6.00;78.79
75868;BME280;64515;51.446;7.578;2022-12-07T14:06:02;100085.19;;;6.04;79.41
75868;BME280;64515;51.446;7.578;2022-12-07T14:08:29;100091.31;;;6.11;78.53
75868;BME280;64515;51.446;7.578;2022-12-07T14:10:55;100086.91;;;6.10;79.50
75868;BME280;64515;51.446;7.578;2022-12-07T14:15:52;100079.97;;;6.00;79.24
75868;BME280;64515;51.446;7.578;2022-12-07T14:18:25;100081.81;;;5.92;78.04
75868;BME280;64515;51.446;7.578;2022-12-07T14:20:52;100077.34;;;5.94;79.53
75868;BME280;64515;51.446;7.578;2022-12-07T14:23:27;100071.28;;;5.82;79.59
75868;BME280;64515;51.446;7.578;2022-12-07T14:25:52;100082.00;;;5.76;79.34
75868;BME280;64515;51.446;7.578;2022-12-07T14:31:16;100076.75;;;5.70;80.02
75868;BME280;64515;51.446;7.578;2022-12-07T14:33:42;100067.97;;;5.65;79.80
75868;BME280;64515;51.446;7.578;2022-12-07T14:36:11;100067.06;;;5.67;80.26
75868;BME280;64515;51.446;7.578;2022-12-07T14:38:37;100071.56;;;5.57;79.60
75868;BME280;64515;51.446;7.578;2022-12-07T14:41:02;100074.22;;;5.57;81.49
75868;BME280;64515;51.446;7.578;2022-12-07T14:43:47;100068.94;;;5.56;80.91
75868;BME280;64515;51.446;7.578;2022-12-07T14:46:13;100075.19;;;5.53;81.17
75868;BME280;64515;51.446;7.578;2022-12-07T14:48:38;100080.47;;;5.53;82.11
75868;BME280;64515;51.446;7.578;2022-12-07T14:51:03;100072.50;;;5.56;80.95
75868;BME280;64515;51.446;7.578;2022-12-07T14:53:31;100064.72;;;5.41;82.15
75868;BME280;64515;51.446;7.578;2022-12-07T14:55:58;100074.59;;;5.26;81.18
75868;BME280;64515;51.446;7.578;2022-12-07T14:58:23;100066.00;;;5.01;80.95
75868;BME280;64515;51.446;7.578;2022-12-07T15:00:48;100068.75;;;4.87;81.01
75868;BME280;64515;51.446;7.578;2022-12-07T15:03:13;100068.84;;;4.78;82.02
75868;BME280;64515;51.446;7.578;2022-12-07T15:05:39;100067.19;;;4.61;82.32
75868;BME280;64515;51.446;7.578;2022-12-07T15:08:05;100069.03;;;4.50;80.92
75868;BME280;64515;51.446;7.578;2022-12-07T15:10:31;100063.78;;;4.44;82.54
75868;BME280;64515;51.446;7.578;2022-12-07T15:12:58;100060.34;;;4.29;83.00
75868;BME280;64515;51.446;7.578;2022-12-07T15:15:43;100063.97;;;4.19;83.65
75868;BME280;64515;51.446;7.578;2022-12-07T15:18:08;100054.28;;;4.13;84.07
75868;BME280;64515;51.446;7.578;2022-12-07T15:20:33;100050.78;;;4.10;82.07
75868;BME280;64515;51.446;7.578;2022-12-07T15:22:58;100047.31;;;4.03;82.48
75868;BME280;64515;51.446;7.578;2022-12-07T15:25:24;100048.22;;;3.97;83.91
75868;BME280;64515;51.446;7.578;2022-12-07T15:27:49;100055.28;;;3.92;84.29
75868;BME280;64515;51.446;7.578;2022-12-07T15:30:14;100053.50;;;3.93;84.32
75868;BME280;64515;51.446;7.578;2022-12-07T15:32:39;100057.03;;;3.93;83.32
75868;BME280;64515;51.446;7.578;2022-12-07T15:35:05;100057.06;;;3.89;85.44
75868;BME280;64515;51.446;7.578;2022-12-07T15:37:30;100055.34;;;3.83;84.03
75868;BME280;64515;51.446;7.578;2022-12-07T15:39:55;100048.28;;;3.82;84.24
75868;BME280;64515;51.446;7.578;2022-12-07T15:42:20;100046.53;;;3.75;83.36
75868;BME280;64515;51.446;7.578;2022-12-07T15:44:46;100049.22;;;3.73;84.08
75868;BME280;64515;51.446;7.578;2022-12-07T15:47:29;100052.75;;;3.66;84.61
75868;BME280;64515;51.446;7.578;2022-12-07T15:49:55;100050.13;;;3.58;84.94
75868;BME280;64515;51.446;7.578;2022-12-07T15:52:20;100046.63;;;3.53;84.82
75868;BME280;64515;51.446;7.578;2022-12-07T15:54:45;100051.06;;;3.46;84.58
75868;BME280;64515;51.446;7.578;2022-12-07T15:57:12;100048.44;;;3.42;84.72
75868;BME280;64515;51.446;7.578;2022-12-07T15:59:37;100043.13;;;3.45;84.85
75868;BME280;64515;51.446;7.578;2022-12-07T16:02:02;100048.47;;;3.36;85.67
75868;BME280;64515;51.446;7.578;2022-12-07T16:04:28;100039.66;;;3.32;84.88
75868;BME280;64515;51.446;7.578;2022-12-07T16:06:54;100041.44;;;3.28;84.95
75868;BME280;64515;51.446;7.578;2022-12-07T16:09:20;100038.78;;;3.25;85.10
75868;BME280;64515;51.446;7.578;2022-12-07T16:11:46;100036.13;;;3.31;84.74
75868;BME280;64515;51.446;7.578;2022-12-07T16:14:11;100031.72;;;3.30;84.73
75868;BME280;64515;51.446;7.578;2022-12-07T16:16:36;100034.38;;;3.33;83.95
75868;BME280;64515;51.446;7.578;2022-12-07T16:19:01;100025.56;;;3.27;85.10
75868;BME280;64515;51.446;7.578;2022-12-07T16:21:27;100029.09;;;3.24;85.34
75868;BME280;64515;51.446;7.578;2022-12-07T16:23:53;100023.81;;;3.24;84.60
75868;BME280;64515;51.446;7.578;2022-12-07T16:26:19;100027.38;;;3.20;84.37
75868;BME280;64515;51.446;7.578;2022-12-07T16:28:45;100023.81;;;3.15;84.68
75868;BME280;64515;51.446;7.578;2022-12-07T16:31:12;100023.84;;;3.12;85.57
75868;BME280;64515;51.446;7.578;2022-12-07T16:33:38;100030.91;;;3.10;86.14
75868;BME280;64515;51.446;7.578;2022-12-07T16:36:04;100036.19;;;3.10;86.45
75868;BME280;64515;51.446;7.578;2022-12-07T16:38:29;100035.28;;;3.12;86.14
75868;BME280;64515;51.446;7.578;2022-12-07T16:40:55;100036.19;;;3.13;86.09
75868;BME280;64515;51.446;7.578;2022-12-07T16:43:20;100034.44;;;3.12;86.57
75868;BME280;64515;51.446;7.578;2022-12-07T16:45:46;100031.75;;;3.27;85.71
75868;BME280;64515;51.446;7.578;2022-12-07T16:48:12;100031.78;;;3.21;86.24
75868;BME280;64515;51.446;7.578;2022-12-07T16:50:40;100025.56;;;3.25;86.38
75868;BME280;64515;51.446;7.578;2022-12-07T16:53:07;100016.78;;;3.26;85.83
75868;BME280;64515;51.446;7.578;2022-12-07T16:55:34;100014.09;;;3.29;86.23
75868;BME280;64515;51.446;7.578;2022-12-07T16:58:00;100015.88;;;3.30;85.78
75868;BME280;64515;51.446;7.578;2022-12-07T17:00:25;100007.94;;;3.33;86.10
75868;BME280;64515;51.446;7.578;2022-12-07T17:02:50;100004.41;;;3.34;86.13
75868;BME280;64515;51.446;7.578;2022-12-07T17:05:16;99997.34;;;3.40;85.97
75868;BME280;64515;51.446;7.578;2022-12-07T17:07:41;100000.84;;;3.45;86.08
75868;BME280;64515;51.446;7.578;2022-12-07T17:10:06;100000.84;;;3.48;85.75
75868;BME280;64515;51.446;7.578;2022-12-07T17:12:31;99998.16;;;3.51;85.53
75868;BME280;64515;51.446;7.578;2022-12-07T17:14:57;99996.38;;;3.58;85.27
75868;BME280;64515;51.446;7.578;2022-12-07T17:17:40;99984.06;;;3.57;85.27
75868;BME280;64515;51.446;7.578;2022-12-07T17:20:06;99995.50;;;3.57;85.42
75868;BME280;64515;51.446;7.578;2022-12-07T17:22:31;99991.97;;;3.58;85.33
75868;BME280;64515;51.446;7.578;2022-12-07T17:24:57;99985.78;;;3.61;85.30
75868;BME280;64515;51.446;7.578;2022-12-07T17:27:22;99986.66;;;3.64;85.25
75868;BME280;64515;51.446;7.578;2022-12-07T17:29:47;99976.97;;;3.62;85.81
75868;BME280;64515;51.446;7.578;2022-12-07T17:32:12;99978.72;;;3.66;85.15
75868;BME280;64515;51.446;7.578;2022-12-07T17:34:37;99979.56;;;3.73;85.19
75868;BME280;64515;51.446;7.578;2022-12-07T17:37:02;99986.66;;;3.71;85.04
75868;BME280;64515;51.446;7.578;2022-12-07T17:39:28;99977.78;;;3.72;85.44
75868;BME280;64515;51.446;7.578;2022-12-07T17:41:54;99974.31;;;3.70;85.29
75868;BME280;64515;51.446;7.578;2022-12-07T17:44:38;99976.03;;;3.74;85.20
75868;BME280;64515;51.446;7.578;2022-12-07T17:47:03;99988.38;;;3.75;85.63
75868;BME280;64515;51.446;7.578;2022-12-07T17:49:29;99974.25;;;3.76;85.01
75868;BME280;64515;51.446;7.578;2022-12-07T17:51:55;99968.94;;;3.79;85.17
75868;BME280;64515;51.446;7.578;2022-12-07T17:54:39;99972.47;;;3.84;84.91
75868;BME280;64515;51.446;7.578;2022-12-07T17:57:04;99968.94;;;3.79;85.98
75868;BME280;64515;51.446;7.578;2022-12-07T17:59:29;99968.88;;;3.90;84.26
75868;BME280;64515;51.446;7.578;2022-12-07T18:01:54;99970.66;;;3.86;84.67
75868;BME280;64515;51.446;7.578;2022-12-07T18:04:19;99972.41;;;3.90;84.57
75868;BME280;64515;51.446;7.578;2022-12-07T18:06:45;99962.72;;;3.92;85.16
75868;BME280;64515;51.446;7.578;2022-12-07T18:09:10;99965.38;;;3.92;84.57
75868;BME280;64515;51.446;7.578;2022-12-07T18:11:35;99962.75;;;3.88;84.60
75868;BME280;64515;51.446;7.578;2022-12-07T18:14:01;99960.94;;;3.90;84.55
75868;BME280;64515;51.446;7.578;2022-12-07T18:16:27;99963.59;;;3.91;83.97
75868;BME280;64515;51.446;7.578;2022-12-07T18:18:53;99961.84;;;3.90;84.27
75868;BME280;64515;51.446;7.578;2022-12-07T18:21:20;99966.22;;;3.90;83.46
75868;BME280;64515;51.446;7.578;2022-12-07T18:23:47;99958.34;;;3.83;84.93
75868;BME280;64515;51.446;7.578;2022-12-07T18:26:13;99966.28;;;3.87;85.15
75868;BME280;64515;51.446;7.578;2022-12-07T18:28:39;99965.41;;;3.83;84.99
75868;BME280;64515;51.446;7.578;2022-12-07T18:31:04;99969.81;;;3.86;85.79
75868;BME280;64515;51.446;7.578;2022-12-07T18:33:29;99961.88;;;3.81;85.98
75868;BME280;64515;51.446;7.578;2022-12-07T18:35:55;99949.53;;;3.83;85.31
75868;BME280;64515;51.446;7.578;2022-12-07T18:38:20;99944.34;;;3.67;86.29
75868;BME280;64515;51.446;7.578;2022-12-07T18:40:45;99948.78;;;3.59;86.17
75868;BME280;64515;51.446;7.578;2022-12-07T18:43:10;99947.94;;;3.51;85.46
75868;BME280;64515;51.446;7.578;2022-12-07T18:45:39;99943.56;;;3.48;87.00
75868;BME280;64515;51.446;7.578;2022-12-07T18:48:05;99941.81;;;3.44;86.75
75868;BME280;64515;51.446;7.578;2022-12-07T18:50:31;99940.06;;;3.45;86.86
75868;BME280;64515;51.446;7.578;2022-12-07T18:53:00;99945.38;;;3.42;86.65
75868;BME280;64515;51.446;7.578;2022-12-07T18:55:26;99935.69;;;3.38;87.11
75868;BME280;64515;51.446;7.578;2022-12-07T18:57:52;99940.09;;;3.37;86.67
75868;BME280;64515;51.446;7.578;2022-12-07T19:00:18;99935.69;;;3.38;86.67
75868;BME280;64515;51.446;7.578;2022-12-07T19:02:43;99933.94;;;3.33;86.90
75868;BME280;64515;51.446;7.578;2022-12-07T19:05:08;99930.47;;;3.28;87.11
75868;BME280;64515;51.446;7.578;2022-12-07T19:07:34;99935.75;;;3.25;86.68
75868;BME280;64515;51.446;7.578;2022-12-07T19:09:59;99932.25;;;3.20;87.33
75868;BME280;64515;51.446;7.578;2022-12-07T19:12:24;99941.03;;;3.22;86.81
75868;BME280;64515;51.446;7.578;2022-12-07T19:14:49;99939.25;;;3.24;86.82
75868;BME280;64515;51.446;7.578;2022-12-07T19:17:14;99938.41;;;3.24;86.93
75868;BME280;64515;51.446;7.578;2022-12-07T19:19:43;99933.97;;;3.27;87.82
75868;BME280;64515;51.446;7.578;2022-12-07T19:22:10;99939.22;;;3.30;86.60
75868;BME280;64515;51.446;7.578;2022-12-07T19:24:35;99937.47;;;3.36;87.23
75868;BME280;64515;51.446;7.578;2022-12-07T19:27:02;99932.19;;;3.36;87.33
75868;BME280;64515;51.446;7.578;2022-12-07T19:29:28;99932.19;;;3.36;87.02
75868;BME280;64515;51.446;7.578;2022-12-07T19:31:55;99930.44;;;3.34;87.03
75868;BME280;64515;51.446;7.578;2022-12-07T19:34:20;99930.41;;;3.39;87.42
75868;BME280;64515;51.446;7.578;2022-12-07T19:36:45;99926.88;;;3.42;87.63
75868;BME280;64515;51.446;7.578;2022-12-07T19:39:10;99927.72;;;3.42;87.14
75868;BME280;64515;51.446;7.578;2022-12-07T19:41:36;99923.38;;;3.38;87.44
75868;BME280;64515;51.446;7.578;2022-12-07T19:44:08;99928.63;;;3.37;87.71
75868;BME280;64515;51.446;7.578;2022-12-07T19:46:35;99918.09;;;3.33;86.45
75868;BME280;64515;51.446;7.578;2022-12-07T19:49:01;99923.34;;;3.40;86.81
75868;BME280;64515;51.446;7.578;2022-12-07T19:51:27;99918.06;;;3.40;86.44
75868;BME280;64515;51.446;7.578;2022-12-07T19:53:53;99914.53;;;3.41;87.08
75868;BME280;64515;51.446;7.578;2022-12-07T19:56:19;99913.63;;;3.40;86.32
75868;BME280;64515;51.446;7.578;2022-12-07T19:58:45;99914.53;;;3.38;86.84
75868;BME280;64515;51.446;7.578;2022-12-07T20:01:12;99917.19;;;3.36;86.64
75868;BME280;64515;51.446;7.578;2022-12-07T20:03:37;99909.28;;;3.34;86.36
75868;BME280;64515;51.446;7.578;2022-12-07T20:06:10;99911.03;;;3.36;86.87
75868;BME280;64515;51.446;7.578;2022-12-07T20:08:36;99911.00;;;3.39;86.68
75868;BME280;64515;51.446;7.578;2022-12-07T20:11:02;99898.69;;;3.38;86.79
75868;BME280;64515;51.446;7.578;2022-12-07T20:13:50;99893.34;;;3.47;86.68
75868;BME280;64515;51.446;7.578;2022-12-07T20:16:16;99889.00;;;3.43;87.40
75868;BME280;64515;51.446;7.578;2022-12-07T20:18:41;99888.06;;;3.44;87.20
75868;BME280;64515;51.446;7.578;2022-12-07T20:21:06;99883.69;;;3.44;87.49
75868;BME280;64515;51.446;7.578;2022-12-07T20:23:32;99890.72;;;3.47;86.73
75868;BME280;64515;51.446;7.578;2022-12-07T20:26:00;99888.06;;;3.44;86.57
75868;BME280;64515;51.446;7.578;2022-12-07T20:28:26;99888.06;;;3.50;86.95
75868;BME280;64515;51.446;7.578;2022-12-07T20:30:52;99887.16;;;3.51;86.56
75868;BME280;64515;51.446;7.578;2022-12-07T20:33:18;99892.44;;;3.49;86.98
75868;BME280;64515;51.446;7.578;2022-12-07T20:35:43;99884.53;;;3.45;87.31
75868;BME280;64515;51.446;7.578;2022-12-07T20:38:09;99877.50;;;3.47;86.58
75868;BME280;64515;51.446;7.578;2022-12-07T20:40:34;99881.91;;;3.46;85.78
75868;BME280;64515;51.446;7.578;2022-12-07T20:43:00;99867.81;;;3.46;85.79
75868;BME280;64515;51.446;7.578;2022-12-07T20:45:27;99868.72;;;3.42;87.04
75868;BME280;64515;51.446;7.578;2022-12-07T20:47:52;99866.97;;;3.41;87.07
75868;BME280;64515;51.446;7.578;2022-12-07T20:50:17;99861.69;;;3.38;86.90
75868;BME280;64515;51.446;7.578;2022-12-07T20:52:42;99859.09;;;3.31;86.56
75868;BME280;64515;51.446;7.578;2022-12-07T20:55:08;99861.72;;;3.34;87.17
75868;BME280;64515;51.446;7.578;2022-12-07T20:57:33;99858.19;;;3.36;86.82
75868;BME280;64515;51.446;7.578;2022-12-07T20:59:58;99858.19;;;3.32;86.75
75868;BME280;64515;51.446;7.578;2022-12-07T21:02:24;99863.50;;;3.29;86.61
75868;BME280;64515;51.446;7.578;2022-12-07T21:04:49;99861.75;;;3.28;87.17
75868;BME280;64515;51.446;7.578;2022-12-07T21:07:15;99854.69;;;3.30;87.04
75868;BME280;64515;51.446;7.578;2022-12-07T21:09:40;99854.63;;;3.37;87.31
75868;BME280;64515;51.446;7.578;2022-12-07T21:12:05;99852.00;;;3.35;87.13
75868;BME280;64515;51.446;7.578;2022-12-07T21:14:34;99850.22;;;3.42;86.32
75868;BME280;64515;51.446;7.578;2022-12-07T21:17:00;99846.69;;;3.44;85.52
75868;BME280;64515;51.446;7.578;2022-12-07T21:19:25;99844.06;;;3.43;86.29
75868;BME280;64515;51.446;7.578;2022-12-07T21:21:50;99844.06;;;3.43;87.15
75868;BME280;64515;51.446;7.578;2022-12-07T21:24:15;99836.94;;;3.51;86.29
75868;BME280;64515;51.446;7.578;2022-12-07T21:26:40;99836.06;;;3.50;85.76
75868;BME280;64515;51.446;7.578;2022-12-07T21:29:06;99840.50;;;3.50;85.85
75868;BME280;64515;51.446;7.578;2022-12-07T21:31:32;99834.25;;;3.56;85.76
75868;BME280;64515;51.446;7.578;2022-12-07T21:33:59;99843.97;;;3.55;85.95
75868;BME280;64515;51.446;7.578;2022-12-07T21:36:25;99836.81;;;3.66;85.32
75868;BME280;64515;51.446;7.578;2022-12-07T21:38:50;99838.66;;;3.57;85.27
75868;BME280;64515;51.446;7.578;2022-12-07T21:41:17;99838.63;;;3.61;84.78
75868;BME280;64515;51.446;7.578;2022-12-07T21:43:43;99835.13;;;3.59;85.68
75868;BME280;64515;51.446;7.578;2022-12-07T21:46:09;99830.78;;;3.50;85.51
75868;BME280;64515;51.446;7.578;2022-12-07T21:48:35;99834.31;;;3.48;85.54
75868;BME280;64515;51.446;7.578;2022-12-07T21:51:06;99826.44;;;3.42;86.08
75868;BME280;64515;51.446;7.578;2022-12-07T21:53:32;99819.41;;;3.41;85.69
75868;BME280;64515;51.446;7.578;2022-12-07T21:55:58;99815.81;;;3.48;86.08
75868;BME280;64515;51.446;7.578;2022-12-07T21:58:23;99821.13;;;3.45;85.52
75868;BME280;64515;51.446;7.578;2022-12-07T22:00:48;99815.88;;;3.42;86.00
75868;BME280;64515;51.446;7.578;2022-12-07T22:03:15;99818.47;;;3.46;85.68
75868;BME280;64515;51.446;7.578;2022-12-07T22:05:40;99822.00;;;3.45;86.22
75868;BME280;64515;51.446;7.578;2022-12-07T22:08:05;99819.41;;;3.41;85.16
75868;BME280;64515;51.446;7.578;2022-12-07T22:10:30;99822.00;;;3.44;85.42
75868;BME280;64515;51.446;7.578;2022-12-07T22:12:57;99819.41;;;3.41;86.29
75868;BME280;64515;51.446;7.578;2022-12-07T22:15:23;99814.97;;;3.41;85.16
75868;BME280;64515;51.446;7.578;2022-12-07T22:17:48;99819.44;;;3.34;85.18
75868;BME280;64515;51.446;7.578;2022-12-07T22:20:14;99822.97;;;3.33;85.38
75868;BME280;64515;51.446;7.578;2022-12-07T22:22:40;99811.50;;;3.36;85.42
75868;BME280;64515;51.446;7.578;2022-12-07T22:25:05;99812.41;;;3.33;85.55
75868;BME280;64515;51.446;7.578;2022-12-07T22:27:31;99812.41;;;3.33;85.80
75868;BME280;64515;51.446;7.578;2022-12-07T22:29:56;99815.91;;;3.36;85.98
75868;BME280;64515;51.446;7.578;2022-12-07T22:32:21;99808.91;;;3.28;85.76
75868;BME280;64515;51.446;7.578;2022-12-07T22:34:46;99816.78;;;3.34;85.43
75868;BME280;64515;51.446;7.578;2022-12-07T22:37:11;99800.06;;;3.36;85.54
75868;BME280;64515;51.446;7.578;2022-12-07T22:39:36;99814.19;;;3.28;85.58
75868;BME280;64515;51.446;7.578;2022-12-07T22:42:02;99808.88;;;3.34;85.09
75868;BME280;64515;51.446;7.578;2022-12-07T22:44:27;99816.81;;;3.30;85.68
75868;BME280;64515;51.446;7.578;2022-12-07T22:46:52;99810.69;;;3.26;86.37
75868;BME280;64515;51.446;7.578;2022-12-07T22:49:17;99807.16;;;3.27;85.89
75868;BME280;64515;51.446;7.578;2022-12-07T22:51:42;99800.13;;;3.23;85.91
75868;BME280;64515;51.446;7.578;2022-12-07T22:54:09;99788.69;;;3.23;85.94
75868;BME280;64515;51.446;7.578;2022-12-07T22:56:37;99792.16;;;3.31;85.15
75868;BME280;64515;51.446;7.578;2022-12-07T22:59:03;99778.97;;;3.23;86.13
75868;BME280;64515;51.446;7.578;2022-12-07T23:01:28;99782.50;;;3.28;85.96
75868;BME280;64515;51.446;7.578;2022-12-07T23:03:53;99786.91;;;3.26;85.72
75868;BME280;64515;51.446;7.578;2022-12-07T23:08:43;99763.13;;;3.26;85.62
75868;BME280;64515;51.446;7.578;2022-12-07T23:11:10;99764.84;;;3.30;85.66
75868;BME280;64515;51.446;7.578;2022-12-07T23:13:55;99765.78;;;3.25;86.21
75868;BME280;64515;51.446;7.578;2022-12-07T23:16:20;99763.06;;;3.29;85.48
75868;BME280;64515;51.446;7.578;2022-12-07T23:18:46;99757.84;;;3.23;86.45
75868;BME280;64515;51.446;7.578;2022-12-07T23:21:11;99750.81;;;3.22;86.40
75868;BME280;64515;51.446;7.578;2022-12-07T23:23:36;99751.63;;;3.30;85.44
75868;BME280;64515;51.446;7.578;2022-12-07T23:26:02;99749.00;;;3.29;85.56
75868;BME280;64515;51.446;7.578;2022-12-07T23:28:27;99747.28;;;3.23;86.26
75868;BME280;64515;51.446;7.578;2022-12-07T23:30:52;99749.03;;;3.27;85.54
75868;BME280;64515;51.446;7.578;2022-12-07T23:33:17;99753.38;;;3.34;85.71
75868;BME280;64515;51.446;7.578;2022-12-07T23:35:43;99743.69;;;3.30;86.22
75868;BME280;64515;51.446;7.578;2022-12-07T23:38:08;99736.63;;;3.37;84.95
75868;BME280;64515;51.446;7.578;2022-12-07T23:40:33;99734.88;;;3.31;86.00
75868;BME280;64515;51.446;7.578;2022-12-07T23:43:00;99741.94;;;3.32;85.79
75868;BME280;64515;51.446;7.578;2022-12-07T23:45:25;99739.25;;;3.37;85.57
75868;BME280;64515;51.446;7.578;2022-12-07T23:47:50;99736.59;;;3.42;85.39
75868;BME280;64515;51.446;7.578;2022-12-07T23:50:15;99738.34;;;3.43;84.88
75868;BME280;64515;51.446;7.578;2022-12-07T23:52:41;99723.41;;;3.36;84.88
75868;BME280;64515;51.446;7.578;2022-12-07T23:55:06;99724.31;;;3.34;85.49
75868;BME280;64515;51.446;7.578;2022-12-07T23:57:31;99720.78;;;3.36;85.75
75868;BME280;64515;51.446;7.578;2022-12-07T23:59:57;99727.78;;;3.40;85.36
